Time;durP1;ratioP1;P1;durP2;ratioP2;P2;SDS_P1;SDS_P2;PMS_P1;PMS_P2;Temp;Humidity;BMP_temperature;BMP_pressure;BME280_temperature;BME280_humidity;BME280_pressure;Samples;Min_cycle;Max_cycle;Signal;HPM_P1;HPM_P2
2023/01/29 00:00:10;;;;;;;12.75;7.50;;;0.60;1.00;;;;;;6258916;22;20209;-85
2023/01/29 00:02:37;;;;;;;11.25;6.68;;;0.60;1.00;;;;;;6262794;22;20244;-85
2023/01/29 00:05:08;;;;;;;20.48;9.07;;;0.70;1.00;;;;;;6246859;22;20209;-85
2023/01/29 00:07:38;;;;;;;14.50;7.63;;;0.70;1.00;;;;;;6262992;22;20247;-84
2023/01/29 00:10:06;;;;;;;12.95;7.63;;;0.70;1.00;;;;;;6259164;22;20235;-83
2023/01/29 00:12:34;;;;;;;10.80;6.57;;;0.70;1.00;;;;;;6260570;22;20196;-85
2023/01/29 00:15:01;;;;;;;11.82;6.75;;;0.80;1.00;;;;;;6259471;22;20772;-84
2023/01/29 00:17:30;;;;;;;12.02;6.90;;;0.80;1.00;;;;;;6258179;22;20204;-86
2023/01/29 00:19:57;;;;;;;13.40;7.18;;;0.80;1.00;;;;;;6257923;22;20213;-84
2023/01/29 00:22:24;;;;;;;15.23;7.30;;;0.80;1.00;;;;;;6260164;22;20230;-84
2023/01/29 00:24:51;;;;;;;15.38;7.75;;;0.70;1.00;;;;;;6260173;22;20982;-84
2023/01/29 00:27:18;;;;;;;13.75;7.57;;;0.80;1.00;;;;;;6258801;22;20209;-83
2023/01/29 00:30:07;;;;;;;12.95;7.82;;;0.80;1.00;;;;;;6260221;22;20217;-84
2023/01/29 00:32:34;;;;;;;13.32;7.80;;;0.80;1.00;;;;;;6251028;22;20669;-85
2023/01/29 00:35:00;;;;;;;15.05;7.78;;;0.80;1.00;;;;;;6256687;22;20267;-82
2023/01/29 00:37:28;;;;;;;13.50;7.65;;;0.80;1.00;;;;;;6259493;22;20236;-83
2023/01/29 00:39:54;;;;;;;17.08;8.95;;;0.80;1.00;;;;;;6258374;22;20209;-87
2023/01/29 00:45:09;;;;;;;17.70;8.13;;;0.80;1.00;;;;;;6260689;22;20209;-85
2023/01/29 00:47:38;;;;;;;13.63;8.52;;;0.80;1.00;;;;;;6232754;22;20220;-86
2023/01/29 00:50:08;;;;;;;15.23;8.90;;;0.90;1.00;;;;;;6258155;22;20224;-80
2023/01/29 00:52:39;;;;;;;15.18;8.52;;;0.90;1.00;;;;;;6257192;22;20235;-84
2023/01/29 00:55:09;;;;;;;13.25;8.30;;;0.90;1.00;;;;;;6258184;22;20255;-84
2023/01/29 00:57:38;;;;;;;14.05;8.98;;;1.00;1.00;;;;;;6258763;22;20209;-84
2023/01/29 01:00:09;;;;;;;13.23;9.10;;;1.00;1.00;;;;;;6257405;22;20221;-84
2023/01/29 01:05:22;;;;;;;16.85;10.00;;;1.00;1.00;;;;;;6256634;22;20291;-85
2023/01/29 01:07:51;;;;;;;14.93;9.55;;;1.00;1.00;;;;;;6256837;22;20217;-80
2023/01/29 01:10:19;;;;;;;13.43;8.60;;;1.00;1.00;;;;;;6258581;22;20247;-84
2023/01/29 01:12:49;;;;;;;14.50;8.60;;;1.00;1.00;;;;;;6257107;22;20998;-84
2023/01/29 01:15:16;;;;;;;16.10;9.55;;;1.00;1.00;;;;;;6252298;22;20217;-82
2023/01/29 01:17:43;;;;;;;16.30;9.95;;;1.00;1.00;;;;;;6256002;22;20250;-84
2023/01/29 01:20:11;;;;;;;15.48;9.57;;;1.10;1.00;;;;;;6258022;22;21032;-85
2023/01/29 01:22:40;;;;;;;18.13;11.02;;;1.00;1.00;;;;;;6258669;22;20201;-84
2023/01/29 01:25:07;;;;;;;16.65;10.23;;;1.00;1.00;;;;;;6259550;22;20216;-85
2023/01/29 01:27:36;;;;;;;16.85;9.88;;;1.10;1.00;;;;;;6258714;22;20193;-84
2023/01/29 01:30:04;;;;;;;14.82;10.00;;;1.10;1.00;;;;;;6256461;22;20291;-84
2023/01/29 01:32:31;;;;;;;18.40;10.30;;;1.10;1.00;;;;;;6257931;22;21278;-84
2023/01/29 01:34:58;;;;;;;15.52;10.63;;;1.10;1.00;;;;;;6256003;22;20270;-83
2023/01/29 01:37:26;;;;;;;16.30;10.80;;;1.10;1.00;;;;;;6257452;22;20839;-85
2023/01/29 01:39:57;;;;;;;17.45;10.07;;;1.10;1.00;;;;;;6255934;22;20668;-85
2023/01/29 01:42:29;;;;;;;18.08;10.95;;;1.10;1.00;;;;;;6259554;22;20295;-85
2023/01/29 01:45:00;;;;;;;18.42;10.38;;;1.10;1.00;;;;;;6229379;22;20294;-85
2023/01/29 01:47:33;;;;;;;19.17;11.40;;;1.10;1.00;;;;;;6233631;22;20228;-84
2023/01/29 01:50:06;;;;;;;19.00;11.38;;;1.20;1.00;;;;;;6245624;22;20228;-83
2023/01/29 01:52:35;;;;;;;19.33;11.73;;;1.10;1.00;;;;;;6256986;22;20196;-85
2023/01/29 01:55:05;;;;;;;19.92;11.43;;;1.10;1.00;;;;;;6254664;22;20875;-85
2023/01/29 01:57:33;;;;;;;18.75;11.80;;;1.10;1.00;;;;;;6257436;22;20208;-83
2023/01/29 02:00:09;;;;;;;17.48;12.40;;;1.10;1.00;;;;;;6252724;22;20220;-85
2023/01/29 02:10:54;;;;;;;23.92;13.70;;;1.30;1.00;;;;;;6253180;22;20276;-80
2023/01/29 02:13:22;;;;;;;16.52;11.82;;;1.40;1.00;;;;;;6252866;22;20216;-81
2023/01/29 02:15:49;;;;;;;18.10;11.13;;;1.30;1.00;;;;;;6238517;22;20228;-80
2023/01/29 02:18:19;;;;;;;17.60;11.63;;;1.30;1.00;;;;;;6224742;23;20193;-80
2023/01/29 02:20:58;;;;;;;19.20;12.48;;;1.30;1.00;;;;;;6222912;22;20206;-81
2023/01/29 02:24:00;;;;;;;24.20;12.30;;;1.30;1.00;;;;;;6244178;22;20259;-80
2023/01/29 02:27:09;;;;;;;16.45;10.85;;;1.40;1.00;;;;;;6252339;22;20903;-78
2023/01/29 02:29:51;;;;;;;17.08;11.25;;;1.50;1.00;;;;;;6161509;23;20218;-81
2023/01/29 02:32:24;;;;;;;16.23;10.25;;;1.50;1.00;;;;;;6242088;22;20219;-80
2023/01/29 02:38:01;;;;;;;18.77;11.82;;;1.50;1.00;;;;;;6256781;22;20291;-79
2023/01/29 02:40:32;;;;;;;18.05;10.93;;;1.40;1.00;;;;;;6256482;22;20209;-79
2023/01/29 02:43:08;;;;;;;19.38;11.65;;;1.40;1.00;;;;;;6255015;22;20212;-80
2023/01/29 02:45:47;;;;;;;20.13;11.90;;;1.30;1.00;;;;;;6254802;22;20214;-79
2023/01/29 02:48:19;;;;;;;18.52;12.55;;;1.30;1.00;;;;;;6255203;22;20205;-81
2023/01/29 02:50:55;;;;;;;19.67;12.02;;;1.20;1.00;;;;;;6256462;22;20292;-79
2023/01/29 02:53:29;;;;;;;21.05;12.13;;;1.20;1.00;;;;;;6252479;22;20216;-81
2023/01/29 02:56:00;;;;;;;18.13;10.75;;;1.20;1.00;;;;;;6251806;22;20267;-80
2023/01/29 02:58:31;;;;;;;18.13;12.13;;;1.10;1.00;;;;;;6254767;22;20296;-80
2023/01/29 03:01:04;;;;;;;19.73;11.57;;;1.10;1.00;;;;;;6250981;22;20224;-79
2023/01/29 03:03:36;;;;;;;17.88;11.68;;;1.10;1.00;;;;;;6251697;22;20885;-80
2023/01/29 03:06:06;;;;;;;19.02;11.43;;;1.10;1.00;;;;;;6252244;22;20213;-78
2023/01/29 03:08:42;;;;;;;20.70;11.93;;;1.10;1.00;;;;;;6253090;22;20887;-80
2023/01/29 03:11:13;;;;;;;16.73;11.00;;;1.10;1.00;;;;;;6247833;22;20415;-79
2023/01/29 03:13:45;;;;;;;17.77;10.82;;;1.20;1.00;;;;;;6253123;22;20212;-79
2023/01/29 03:16:23;;;;;;;20.45;11.52;;;1.20;1.00;;;;;;6250817;22;20689;-80
2023/01/29 03:18:55;;;;;;;19.55;12.20;;;1.20;1.00;;;;;;6252551;22;20275;-80
2023/01/29 03:32:47;;;;;;;18.20;12.35;;;1.30;1.00;;;;;;6252787;22;20699;-81
2023/01/29 03:35:35;;;;;;;18.75;11.85;;;1.30;1.00;;;;;;6237418;22;20286;-79
2023/01/29 03:38:11;;;;;;;21.25;13.25;;;1.30;1.00;;;;;;6220606;22;20284;-82
2023/01/29 03:40:58;;;;;;;17.05;11.40;;;1.30;1.00;;;;;;6208929;22;20217;-83
2023/01/29 03:43:33;;;;;;;19.35;12.70;;;1.30;1.00;;;;;;6229244;22;20209;-81
2023/01/29 03:46:07;;;;;;;22.77;14.15;;;1.20;1.00;;;;;;6252604;22;20278;-80
2023/01/29 03:48:41;;;;;;;17.40;11.77;;;1.20;1.00;;;;;;6253545;22;20247;-81
2023/01/29 03:51:20;;;;;;;19.50;11.90;;;1.20;1.00;;;;;;6250813;22;20224;-81
2023/01/29 03:53:53;;;;;;;19.30;12.77;;;1.30;1.00;;;;;;6253649;22;20216;-80
2023/01/29 03:56:33;;;;;;;18.58;12.10;;;1.20;1.00;;;;;;6252746;22;20212;-80
2023/01/29 03:59:10;;;;;;;20.17;12.52;;;1.30;1.00;;;;;;6252848;22;20251;-79
2023/01/29 04:01:47;;;;;;;17.15;12.00;;;1.30;1.00;;;;;;6253020;22;20212;-81
2023/01/29 04:04:20;;;;;;;21.38;12.60;;;1.40;1.00;;;;;;6222665;22;20201;-80
2023/01/29 04:06:51;;;;;;;22.13;13.50;;;1.40;1.00;;;;;;6247841;22;20247;-80
2023/01/29 04:09:23;;;;;;;23.42;13.77;;;1.40;1.00;;;;;;6222330;23;20260;-80
2023/01/29 04:11:57;;;;;;;18.38;12.27;;;1.40;1.00;;;;;;6222425;22;20294;-82
2023/01/29 04:14:24;;;;;;;20.25;12.40;;;1.40;1.00;;;;;;6252830;22;20213;-79
2023/01/29 04:16:55;;;;;;;20.83;12.50;;;1.30;1.00;;;;;;6249204;22;20219;-80
2023/01/29 04:19:25;;;;;;;22.35;13.10;;;1.20;1.00;;;;;;6250362;22;20213;-80
2023/01/29 04:22:02;;;;;;;21.52;13.73;;;1.20;1.00;;;;;;6250137;22;20371;-82
2023/01/29 04:24:29;;;;;;;21.42;13.27;;;1.20;1.00;;;;;;6251412;22;20215;-83
2023/01/29 04:27:05;;;;;;;18.70;12.45;;;1.20;1.00;;;;;;6251390;22;20996;-78
2023/01/29 04:29:50;;;;;;;20.10;13.50;;;1.20;1.00;;;;;;6238723;22;20213;-80
2023/01/29 04:32:24;;;;;;;21.88;13.95;;;1.10;1.00;;;;;;6226462;22;20209;-79
2023/01/29 04:35:02;;;;;;;20.35;12.95;;;1.20;1.00;;;;;;6248000;22;20681;-82
2023/01/29 04:37:36;;;;;;;23.75;13.60;;;1.20;1.00;;;;;;6254047;22;20212;-81
2023/01/29 04:40:17;;;;;;;21.23;13.95;;;1.20;1.00;;;;;;6252743;22;20974;-82
2023/01/29 04:42:51;;;;;;;28.05;15.55;;;1.20;1.00;;;;;;6254045;22;20703;-79
2023/01/29 04:45:25;;;;;;;20.38;12.38;;;1.20;1.00;;;;;;6251044;22;20208;-82
2023/01/29 04:48:02;;;;;;;22.27;14.50;;;1.10;1.00;;;;;;6253308;22;20681;-81
2023/01/29 04:50:38;;;;;;;23.75;13.93;;;1.00;1.00;;;;;;6254403;22;20958;-80
2023/01/29 04:53:10;;;;;;;21.17;12.70;;;1.00;1.00;;;;;;6252958;22;20894;-79
2023/01/29 04:55:47;;;;;;;22.92;13.48;;;1.00;1.00;;;;;;6255354;22;20951;-82
2023/01/29 04:58:22;;;;;;;23.33;13.93;;;1.00;1.00;;;;;;6241402;22;20223;-81
2023/01/29 05:00:52;;;;;;;23.95;14.38;;;1.10;1.00;;;;;;6251979;22;20216;-80
2023/01/29 05:03:22;;;;;;;23.77;14.30;;;1.10;1.00;;;;;;6205114;23;21017;-82
2023/01/29 05:06:11;;;;;;;23.70;14.15;;;1.10;1.00;;;;;;6239985;22;20295;-83
2023/01/29 05:08:41;;;;;;;21.88;12.93;;;1.20;1.00;;;;;;6224459;22;20212;-82
2023/01/29 05:11:09;;;;;;;25.25;14.00;;;1.20;1.00;;;;;;6234299;22;20276;-80
2023/01/29 05:13:40;;;;;;;23.00;14.38;;;1.20;1.00;;;;;;6223160;22;20197;-80
2023/01/29 05:16:19;;;;;;;22.48;13.68;;;1.10;1.00;;;;;;6235544;22;21337;-78
2023/01/29 05:18:53;;;;;;;26.50;15.00;;;1.20;1.00;;;;;;6224438;22;20260;-84
2023/01/29 05:21:23;;;;;;;28.58;18.63;;;1.20;1.00;;;;;;6250311;22;20295;-80
2023/01/29 05:24:11;;;;;;;22.35;13.85;;;1.30;1.00;;;;;;6234911;22;20921;-79
2023/01/29 05:29:41;;;;;;;25.00;14.43;;;1.30;1.00;;;;;;6237799;22;20256;-82
2023/01/29 05:32:08;;;;;;;23.70;15.23;;;1.30;1.00;;;;;;6237909;22;20239;-80
2023/01/29 05:34:41;;;;;;;25.50;15.98;;;1.20;1.00;;;;;;6252563;22;20189;-81
2023/01/29 05:37:10;;;;;;;23.60;15.05;;;1.20;1.00;;;;;;6237172;22;20218;-81
2023/01/29 05:39:40;;;;;;;24.73;15.65;;;1.20;1.00;;;;;;6225379;22;20260;-81
2023/01/29 05:42:09;;;;;;;28.77;16.48;;;1.10;1.00;;;;;;6235864;22;20216;-83
2023/01/29 05:44:42;;;;;;;25.00;16.63;;;1.10;1.00;;;;;;6226855;22;20204;-82
2023/01/29 05:47:09;;;;;;;27.13;14.90;;;1.20;1.00;;;;;;6222965;22;21008;-80
2023/01/29 05:49:42;;;;;;;25.77;16.33;;;1.20;1.00;;;;;;6234757;22;20908;-80
2023/01/29 05:52:10;;;;;;;27.95;16.95;;;1.10;1.00;;;;;;6225501;22;23047;-79
2023/01/29 05:54:40;;;;;;;28.75;16.45;;;1.10;1.00;;;;;;6252647;22;20221;-79
2023/01/29 05:57:07;;;;;;;27.42;15.75;;;1.10;1.00;;;;;;6250049;22;20213;-81
2023/01/29 05:59:33;;;;;;;28.88;16.42;;;1.10;1.00;;;;;;6251533;22;20220;-79
2023/01/29 06:02:00;;;;;;;25.20;15.25;;;1.10;1.00;;;;;;6250572;22;20783;-80
2023/01/29 06:04:31;;;;;;;29.23;17.10;;;1.20;1.00;;;;;;6252931;22;21438;-80
2023/01/29 06:07:00;;;;;;;27.92;15.85;;;1.20;1.00;;;;;;6234209;22;20209;-79
2023/01/29 06:09:28;;;;;;;26.85;17.10;;;1.30;1.00;;;;;;6239005;22;20238;-80
2023/01/29 06:11:55;;;;;;;27.00;16.92;;;1.20;1.00;;;;;;6236297;22;20336;-80
2023/01/29 06:14:22;;;;;;;28.75;16.80;;;1.20;1.00;;;;;;6252124;22;20220;-79
2023/01/29 06:16:49;;;;;;;27.67;17.15;;;1.30;1.00;;;;;;6254551;22;20212;-80
2023/01/29 06:19:17;;;;;;;28.33;17.45;;;1.30;1.00;;;;;;6254812;22;20303;-79
2023/01/29 06:21:44;;;;;;;30.50;17.90;;;1.30;1.00;;;;;;6253043;22;20208;-80
2023/01/29 06:24:11;;;;;;;27.58;16.88;;;1.40;1.00;;;;;;6252989;22;20216;-81
2023/01/29 06:26:39;;;;;;;26.65;17.38;;;1.40;1.00;;;;;;6253126;22;20895;-79
2023/01/29 06:29:06;;;;;;;24.88;16.42;;;1.40;1.00;;;;;;6252676;22;20988;-79
2023/01/29 06:31:35;;;;;;;27.05;16.60;;;1.40;1.00;;;;;;6252156;22;20213;-79
2023/01/29 06:34:03;;;;;;;29.48;17.90;;;1.40;1.00;;;;;;6252863;22;21067;-80
2023/01/29 06:36:30;;;;;;;29.48;17.42;;;1.40;1.00;;;;;;6253548;22;20208;-79
2023/01/29 06:38:57;;;;;;;27.73;17.38;;;1.40;1.00;;;;;;6251272;22;20267;-81
2023/01/29 06:41:25;;;;;;;32.05;18.67;;;1.30;1.00;;;;;;6253077;22;20968;-79
2023/01/29 06:43:54;;;;;;;28.48;18.70;;;1.40;1.00;;;;;;6252279;22;20221;-80
2023/01/29 06:46:21;;;;;;;26.00;16.90;;;1.40;1.00;;;;;;6236197;22;20209;-79
2023/01/29 06:48:51;;;;;;;30.58;17.50;;;1.40;1.00;;;;;;6238919;22;20212;-79
2023/01/29 06:51:18;;;;;;;31.20;18.88;;;1.30;1.00;;;;;;6236659;22;20193;-79
2023/01/29 06:53:49;;;;;;;30.95;18.02;;;1.30;1.00;;;;;;6222894;22;20221;-79
2023/01/29 06:56:21;;;;;;;32.15;17.58;;;1.40;1.00;;;;;;6240207;22;20990;-80
2023/01/29 06:58:51;;;;;;;31.70;18.88;;;1.40;1.00;;;;;;6252364;22;20213;-79
2023/01/29 07:01:19;;;;;;;30.13;18.20;;;1.40;1.00;;;;;;6248535;22;20217;-79
2023/01/29 07:03:51;;;;;;;30.20;19.40;;;1.50;1.00;;;;;;6235720;22;20212;-79
2023/01/29 07:06:18;;;;;;;31.98;19.38;;;1.50;1.00;;;;;;6211452;22;20219;-80
2023/01/29 07:08:51;;;;;;;32.83;19.20;;;1.40;1.00;;;;;;6240098;22;20213;-81
2023/01/29 07:11:29;;;;;;;31.58;18.45;;;1.50;1.00;;;;;;6227884;22;20212;-80
2023/01/29 07:14:02;;;;;;;30.83;19.27;;;1.50;1.00;;;;;;6222222;22;20283;-79
2023/01/29 07:16:30;;;;;;;28.58;18.20;;;1.60;1.00;;;;;;6232467;22;20209;-79
2023/01/29 07:18:57;;;;;;;33.00;18.00;;;1.60;1.00;;;;;;6251256;22;20267;-80
2023/01/29 07:21:25;;;;;;;29.17;17.85;;;1.60;1.00;;;;;;6255137;22;20664;-80
2023/01/29 07:23:52;;;;;;;32.00;19.00;;;1.60;1.00;;;;;;6251838;22;20220;-80
2023/01/29 07:26:20;;;;;;;32.22;18.60;;;1.60;1.00;;;;;;6251744;22;20208;-81
2023/01/29 07:28:49;;;;;;;28.10;18.00;;;1.70;1.00;;;;;;6249573;22;20258;-79
2023/01/29 07:31:22;;;;;;;31.23;18.27;;;1.60;1.00;;;;;;6257976;22;20221;-78
2023/01/29 07:33:54;;;;;;;34.17;19.77;;;1.60;1.00;;;;;;6233050;22;20645;-81
2023/01/29 07:36:20;;;;;;;32.28;18.98;;;1.60;1.00;;;;;;6223427;22;20756;-80
2023/01/29 07:38:50;;;;;;;30.80;19.08;;;1.70;1.00;;;;;;6224570;22;20219;-81
2023/01/29 07:41:17;;;;;;;30.88;20.38;;;1.70;1.00;;;;;;6239772;22;20251;-81
2023/01/29 07:43:44;;;;;;;31.95;18.30;;;1.60;1.00;;;;;;6253804;22;20197;-82
2023/01/29 07:46:11;;;;;;;33.20;19.88;;;1.60;1.00;;;;;;6251030;22;20227;-80
2023/01/29 07:48:40;;;;;;;36.70;20.70;;;1.60;1.00;;;;;;6237699;22;20209;-82
2023/01/29 07:51:11;;;;;;;33.50;19.42;;;1.70;1.00;;;;;;6210824;22;20296;-80
2023/01/29 07:53:43;;;;;;;33.00;20.38;;;1.70;1.00;;;;;;6239361;22;20910;-81
2023/01/29 07:56:10;;;;;;;33.20;18.92;;;1.70;1.00;;;;;;6227021;22;20927;-80
2023/01/29 07:58:38;;;;;;;29.77;18.83;;;1.70;1.00;;;;;;6253591;22;20243;-80
2023/01/29 08:01:11;;;;;;;31.13;19.08;;;1.70;1.00;;;;;;6250193;22;21128;-80
2023/01/29 08:03:51;;;;;;;32.63;18.55;;;1.70;1.00;;;;;;6227294;22;20740;-80
2023/01/29 08:06:22;;;;;;;32.70;21.42;;;1.70;1.00;;;;;;6225218;22;21063;-80
2023/01/29 08:09:02;;;;;;;;;;;;;;;;;;;;;
2023/01/29 08:11:32;;;;;;;34.03;19.92;;;1.70;1.00;;;;;;6223943;22;39862;-82
2023/01/29 08:14:01;;;;;;;34.45;19.73;;;1.70;1.00;;;;;;6207492;22;20208;-81
2023/01/29 08:16:32;;;;;;;34.22;20.30;;;1.60;1.00;;;;;;6234193;22;20204;-82
2023/01/29 08:19:01;;;;;;;32.72;20.02;;;1.60;1.00;;;;;;6206565;22;20212;-82
2023/01/29 08:21:30;;;;;;;34.85;21.00;;;1.60;1.00;;;;;;6240514;22;20213;-80
2023/01/29 08:23:57;;;;;;;36.00;20.67;;;1.70;1.00;;;;;;6253358;22;20303;-80
2023/01/29 08:26:25;;;;;;;34.25;21.80;;;1.70;1.00;;;;;;6253909;22;21005;-80
2023/01/29 08:28:52;;;;;;;33.53;21.23;;;1.80;1.00;;;;;;6224255;22;20864;-80
2023/01/29 08:31:21;;;;;;;34.28;21.05;;;1.80;1.00;;;;;;6255032;22;20216;-80
2023/01/29 08:33:51;;;;;;;33.22;20.30;;;1.80;1.00;;;;;;6240633;22;20212;-80
2023/01/29 08:36:17;;;;;;;31.45;18.67;;;1.80;1.00;;;;;;6255095;22;20209;-81
2023/01/29 08:39:12;;;;;;;34.50;19.95;;;1.90;1.00;;;;;;6224959;22;20213;-80
2023/01/29 08:41:42;;;;;;;33.25;21.35;;;1.90;1.00;;;;;;6196230;22;20934;-80
2023/01/29 08:44:11;;;;;;;34.40;20.50;;;1.80;1.00;;;;;;6199628;22;20200;-80
2023/01/29 08:47:10;;;;;;;34.55;19.33;;;1.80;1.00;;;;;;6224552;22;20281;-80
2023/01/29 08:49:50;;;;;;;34.53;21.02;;;1.90;1.00;;;;;;6211686;22;20271;-81
2023/01/29 08:52:21;;;;;;;33.40;19.08;;;1.90;1.00;;;;;;6238920;22;20218;-80
2023/01/29 08:54:52;;;;;;;32.53;20.05;;;1.90;1.00;;;;;;6225972;22;20212;-80
2023/01/29 08:57:21;;;;;;;32.30;18.88;;;2.00;1.00;;;;;;6226466;22;20280;-80
2023/01/29 08:59:52;;;;;;;35.30;20.92;;;2.10;1.00;;;;;;6228721;22;20236;-81
2023/01/29 09:02:21;;;;;;;37.72;22.40;;;2.10;1.00;;;;;;6240603;22;20222;-80
2023/01/29 09:04:53;;;;;;;32.60;21.20;;;2.10;1.00;;;;;;6220949;22;20200;-81
2023/01/29 09:07:22;;;;;;;32.95;18.73;;;2.10;1.00;;;;;;6181668;22;20219;-81
2023/01/29 09:10:00;;;;;;;36.40;21.20;;;2.20;1.00;;;;;;6246279;22;20996;-85
2023/01/29 09:12:31;;;;;;;35.35;21.95;;;2.20;1.00;;;;;;6232818;22;20890;-86
2023/01/29 09:15:01;;;;;;;36.38;19.15;;;2.10;1.00;;;;;;6210317;22;20316;-84
2023/01/29 09:17:32;;;;;;;29.42;17.25;;;2.20;1.00;;;;;;6201705;22;20236;-84
2023/01/29 09:20:00;;;;;;;34.95;20.85;;;2.20;1.00;;;;;;6216902;22;20205;-85
2023/01/29 09:22:32;;;;;;;31.60;20.40;;;2.20;1.00;;;;;;6222275;22;20257;-84
2023/01/29 09:25:10;;;;;;;31.98;19.73;;;2.20;1.00;;;;;;6209219;22;20204;-84
2023/01/29 09:27:53;;;;;;;36.53;20.20;;;2.30;1.00;;;;;;6221062;22;20205;-85
2023/01/29 09:30:32;;;;;;;32.28;18.67;;;2.40;1.00;;;;;;6157688;23;20300;-84
2023/01/29 09:33:02;;;;;;;33.55;19.52;;;2.30;1.00;;;;;;6145565;23;20210;-84
2023/01/29 09:35:53;;;;;;;33.20;20.45;;;2.30;1.00;;;;;;6194277;23;20302;-85
2023/01/29 10:00:14;;;;;;;31.27;18.83;;;3.00;1.00;;;;;;6052933;23;20216;-82
2023/01/29 10:19:20;;;;;;;28.75;17.77;;;3.30;1.00;;;;;;6212739;22;20208;-81
2023/01/29 11:01:20;;;;;;;26.15;14.60;;;4.20;1.00;;;;;;6064569;23;20406;-80
2023/01/29 11:04:20;;;;;;;25.23;14.73;;;4.30;1.00;;;;;;6085620;23;20210;-85
2023/01/29 11:10:01;;;;;;;23.50;15.15;;;4.60;1.00;;;;;;6146119;23;20284;-84
2023/01/29 11:12:40;;;;;;;24.10;13.65;;;4.70;1.00;;;;;;6201387;22;20205;-82
2023/01/29 11:15:24;;;;;;;25.25;13.77;;;4.70;1.00;;;;;;6152303;22;20234;-82
2023/01/29 11:18:21;;;;;;;20.75;12.88;;;4.80;1.00;;;;;;6172500;22;20701;-81
2023/01/29 11:27:13;;;;;;;20.75;13.30;;;5.30;1.00;;;;;;6188331;22;20300;-82
2023/01/29 11:29:53;;;;;;;22.10;13.25;;;5.30;1.00;;;;;;6210251;22;20220;-81
2023/01/29 11:33:00;;;;;;;20.38;13.27;;;5.10;1.00;;;;;;6168765;23;20225;-80
2023/01/29 11:35:44;;;;;;;19.45;12.10;;;5.10;1.00;;;;;;6185214;22;20677;-80
2023/01/29 11:52:09;;;;;;;19.17;12.07;;;5.30;1.00;;;;;;6222011;22;20239;-84
2023/01/29 11:55:02;;;;;;;21.20;11.80;;;5.20;1.00;;;;;;6268047;22;20192;-85
2023/01/29 12:01:11;;;;;;;18.15;11.38;;;5.20;1.00;;;;;;6232632;22;20212;-83
2023/01/29 12:03:52;;;;;;;22.45;12.50;;;5.10;1.00;;;;;;6178203;22;20201;-86
2023/01/29 12:06:23;;;;;;;18.02;10.43;;;5.00;1.00;;;;;;6255237;22;20238;-83
2023/01/29 12:09:01;;;;;;;19.17;12.60;;;4.90;1.00;;;;;;6259952;22;20238;-81
2023/01/29 12:11:32;;;;;;;18.02;11.38;;;5.00;1.00;;;;;;6288631;22;20208;-81
2023/01/29 12:14:04;;;;;;;20.02;12.20;;;4.90;1.00;;;;;;6245545;22;20231;-81
2023/01/29 12:16:40;;;;;;;18.60;12.25;;;4.80;1.00;;;;;;6271525;22;20232;-82
2023/01/29 12:19:30;;;;;;;19.00;11.40;;;4.90;1.00;;;;;;6240146;22;20213;-83
2023/01/29 12:22:33;;;;;;;20.67;11.93;;;4.90;1.00;;;;;;6234716;22;20215;-81
2023/01/29 12:25:33;;;;;;;17.17;10.75;;;4.90;1.00;;;;;;6232071;22;20282;-82
2023/01/29 12:31:24;;;;;;;16.38;10.15;;;4.90;1.00;;;;;;6247858;22;20211;-83
2023/01/29 12:34:13;;;;;;;18.23;10.85;;;4.80;1.00;;;;;;6240752;22;20309;-82
2023/01/29 12:37:02;;;;;;;18.52;11.18;;;4.90;1.00;;;;;;6250079;22;20215;-82
2023/01/29 12:39:33;;;;;;;18.27;11.60;;;4.90;1.00;;;;;;6247943;22;20208;-82
2023/01/29 12:42:24;;;;;;;18.30;11.40;;;4.90;1.00;;;;;;6230225;22;20212;-82
2023/01/29 12:45:04;;;;;;;19.02;11.45;;;4.90;1.00;;;;;;6231976;22;20998;-81
2023/01/29 12:53:34;;;;;;;19.02;10.63;;;4.90;1.00;;;;;;6214418;22;20284;-82
2023/01/29 12:56:16;;;;;;;19.23;11.27;;;4.80;1.00;;;;;;6254228;22;20275;-82
2023/01/29 13:13:53;;;;;;;21.33;12.25;;;4.60;1.00;;;;;;6243904;22;20428;-84
2023/01/29 13:19:33;;;;;;;20.17;12.82;;;4.80;1.00;;;;;;6286973;22;20237;-83
2023/01/29 13:59:15;;;;;;;23.92;12.98;;;4.40;1.00;;;;;;6164646;23;20217;-85
2023/01/29 14:06:01;;;;;;;19.58;12.07;;;4.10;1.00;;;;;;6226416;22;20225;-84
2023/01/29 14:16:03;;;;;;;20.73;12.02;;;4.00;1.00;;;;;;6296072;22;20231;-85
2023/01/29 14:19:15;;;;;;;;;;;;;;;;;;;;;
2023/01/29 14:27:55;;;;;;;21.13;12.05;;;4.00;1.00;;;;;;6293064;22;20229;-84
2023/01/29 14:37:42;;;;;;;24.30;15.32;;;3.70;1.00;;;;;;6204749;22;20239;-85
2023/01/29 14:43:34;;;;;;;23.35;14.05;;;3.60;1.00;;;;;;6146434;22;20224;-85
2023/01/29 14:46:44;;;;;;;22.98;13.70;;;3.50;1.00;;;;;;6274786;22;20292;-85
2023/01/29 14:50:03;;;;;;;23.45;13.98;;;3.50;1.00;;;;;;6273094;22;20211;-83
2023/01/29 14:56:14;;;;;;;;;;;;;;;;;;;;;
2023/01/29 14:59:23;;;;;;;31.10;14.35;;;3.40;1.00;;;;;;6216675;22;38215;-83
2023/01/29 15:02:25;;;;;;;;;;;;;;;;;;;;;
2023/01/29 15:08:28;;;;;;;26.45;16.15;;;3.30;1.00;;;;;;6297741;22;20302;-80
2023/01/29 15:14:34;;;;;;;25.30;15.32;;;3.30;1.00;;;;;;6285475;22;20217;-83
2023/01/29 15:18:15;;;;;;;;;;;;;;;;;;;;;
2023/01/29 15:21:04;;;;;;;25.50;15.65;;;3.20;1.00;;;;;;6255284;22;50353;-83
2023/01/29 15:23:46;;;;;;;25.98;16.52;;;3.20;1.00;;;;;;6287686;22;20218;-82
2023/01/29 15:26:31;;;;;;;24.55;15.20;;;3.10;1.00;;;;;;6275169;22;20219;-85
2023/01/29 15:29:12;;;;;;;25.17;15.25;;;3.10;1.00;;;;;;6273109;22;20191;-86
2023/01/29 15:35:23;;;;;;;26.98;16.00;;;2.90;1.00;;;;;;6281222;22;20216;-84
2023/01/29 15:41:43;;;;;;;28.17;15.55;;;2.80;1.00;;;;;;6230068;22;20207;-83
2023/01/29 15:44:22;;;;;;;27.30;17.23;;;2.80;1.00;;;;;;6273700;22;20261;-84
2023/01/29 15:47:23;;;;;;;25.33;16.13;;;2.90;1.00;;;;;;6280615;22;20278;-84
2023/01/29 15:50:14;;;;;;;25.85;15.55;;;2.90;1.00;;;;;;6283556;22;20272;-83
2023/01/29 15:55:52;;;;;;;25.20;14.68;;;2.90;1.00;;;;;;6269396;22;20211;-83
2023/01/29 15:58:52;;;;;;;27.65;16.42;;;2.90;1.00;;;;;;6300808;22;20214;-85
2023/01/29 16:01:33;;;;;;;26.30;16.23;;;2.90;1.00;;;;;;6250315;22;20707;-82
2023/01/29 16:04:05;;;;;;;26.00;16.05;;;2.90;1.00;;;;;;6218505;22;20700;-82
2023/01/29 16:06:55;;;;;;;26.70;15.07;;;2.90;1.00;;;;;;6223424;22;20216;-83
2023/01/29 16:23:03;;;;;;;;;;;;;;;;;;;;;
2023/01/29 17:28:17;;;;;;;26.90;17.52;;;2.90;1.00;;;;;;6024351;23;20212;-84
2023/01/29 17:30:56;;;;;;;26.30;16.48;;;2.90;1.00;;;;;;6162060;22;21064;-84
2023/01/29 17:33:25;;;;;;;28.45;17.17;;;2.90;1.00;;;;;;6286871;22;20266;-84
2023/01/29 17:36:06;;;;;;;27.75;17.50;;;2.80;1.00;;;;;;6295719;22;20294;-85
2023/01/29 17:38:44;;;;;;;26.90;17.55;;;2.90;1.00;;;;;;6290405;22;20228;-83
2023/01/29 17:41:24;;;;;;;32.25;17.77;;;2.80;1.00;;;;;;6283821;22;20222;-84
2023/01/29 17:44:06;;;;;;;;;;;;;;;;;;;;;
2023/01/29 17:46:41;;;;;;;27.13;16.67;;;2.70;1.00;;;;;;6286203;22;50449;-83
2023/01/29 17:49:23;;;;;;;27.50;16.67;;;2.80;1.00;;;;;;6289699;22;20277;-82
2023/01/29 17:52:14;;;;;;;26.10;15.43;;;2.80;1.00;;;;;;6300460;22;20593;-82
2023/01/29 17:55:01;;;;;;;25.90;16.85;;;2.80;1.00;;;;;;6319021;22;20215;-83
2023/01/29 17:57:40;;;;;;;24.38;14.13;;;2.80;1.00;;;;;;6298602;22;20225;-84
2023/01/29 18:00:17;;;;;;;24.38;15.70;;;2.80;1.00;;;;;;6316840;22;20207;-83
2023/01/29 18:02:56;;;;;;;23.83;14.80;;;2.80;1.00;;;;;;6320581;22;20207;-82
2023/01/29 18:05:24;;;;;;;35.25;21.08;;;2.70;1.00;;;;;;6288851;22;20227;-83
2023/01/29 18:08:15;;;;;;;23.00;14.43;;;2.70;1.00;;;;;;6310985;22;20251;-82
2023/01/29 18:10:55;;;;;;;23.45;13.68;;;2.80;1.00;;;;;;6303222;22;20294;-84
2023/01/29 18:13:24;;;;;;;24.65;14.48;;;2.80;1.00;;;;;;6286423;22;20218;-83
2023/01/29 18:16:05;;;;;;;25.88;14.43;;;2.70;1.00;;;;;;6318390;22;20237;-84
2023/01/29 18:18:42;;;;;;;23.95;15.30;;;2.70;1.00;;;;;;6318939;22;20206;-83
2023/01/29 18:21:21;;;;;;;23.40;13.75;;;2.70;1.00;;;;;;6318766;22;20919;-83
2023/01/29 18:24:02;;;;;;;23.40;14.60;;;2.70;1.00;;;;;;6322394;22;20214;-84
2023/01/29 18:26:39;;;;;;;25.48;14.82;;;2.70;1.00;;;;;;6302321;22;20208;-84
2023/01/29 18:32:25;;;;;;;22.77;14.43;;;2.60;1.00;;;;;;6314242;22;20270;-83
2023/01/29 18:38:05;;;;;;;;;;;;;;;;;;;;;
2023/01/29 18:40:46;;;;;;;25.65;14.93;;;2.70;1.00;;;;;;6314415;22;47885;-82
2023/01/29 18:43:44;;;;;;;24.95;14.63;;;2.70;1.00;;;;;;6299015;22;20217;-81
2023/01/29 18:50:14;;;;;;;25.05;15.07;;;2.70;1.00;;;;;;6087064;23;20290;-83
2023/01/29 18:56:22;;;;;;;21.17;13.15;;;2.70;1.00;;;;;;6176707;23;20198;-80
2023/01/29 18:59:13;;;;;;;22.08;13.63;;;2.80;1.00;;;;;;6230275;22;20952;-81
2023/01/29 19:05:33;;;;;;;25.08;14.25;;;2.80;1.00;;;;;;6223507;22;20294;-81
2023/01/29 19:08:37;;;;;;;24.55;13.90;;;2.80;1.00;;;;;;6266849;22;20207;-81
2023/01/29 19:14:33;;;;;;;21.60;14.25;;;2.80;1.00;;;;;;6222981;22;20746;-85
2023/01/29 19:20:15;;;;;;;21.73;13.70;;;2.80;1.00;;;;;;6197527;22;20222;-81
2023/01/29 19:53:36;;;;;;;20.30;12.38;;;2.70;1.00;;;;;;6136744;23;20399;-82
2023/01/29 20:12:04;;;;;;;18.02;10.60;;;2.60;1.00;;;;;;6161317;23;20214;-83
2023/01/29 20:21:41;;;;;;;20.27;10.88;;;2.50;1.00;;;;;;6133223;22;20237;-80